createdAt,value
2022-12-31T00:00:51.642Z,4.54
2022-12-31T00:01:53.173Z,4.59
2022-12-31T00:02:54.817Z,4.68
2022-12-31T00:03:57.464Z,4.74
2022-12-31T00:04:58.990Z,4.81
2022-12-31T00:12:32.464Z,5.07
2022-12-31T00:13:33.985Z,5.15
2022-12-31T00:14:35.553Z,5.16
2022-12-31T00:15:37.993Z,5.23
2022-12-31T00:16:42.284Z,5.29
2022-12-31T00:17:43.889Z,5.34
2022-12-31T00:18:48.748Z,5.39
2022-12-31T00:19:50.240Z,5.39
2022-12-31T00:20:51.764Z,5.41
2022-12-31T00:21:53.329Z,5.45
2022-12-31T00:22:55.049Z,5.45
2022-12-31T00:23:57.242Z,5.53
2022-12-31T00:24:58.770Z,5.55
2022-12-31T00:26:11.602Z,5.54
2022-12-31T00:27:13.132Z,5.54
2022-12-31T00:28:14.719Z,5.58
2022-12-31T00:29:16.293Z,5.63
2022-12-31T00:30:17.882Z,5.70
2022-12-31T00:31:26.032Z,5.74
2022-12-31T00:32:28.357Z,5.76
2022-12-31T00:33:29.906Z,5.86
2022-12-31T00:34:32.303Z,5.89
2022-12-31T00:35:33.852Z,5.91
2022-12-31T00:36:38.455Z,5.91
2022-12-31T00:37:39.948Z,5.94
2022-12-31T00:38:44.154Z,5.91
2022-12-31T00:39:45.656Z,5.89
2022-12-31T00:40:47.171Z,5.90
2022-12-31T00:41:48.697Z,5.88
2022-12-31T00:42:50.237Z,5.84
2022-12-31T00:43:52.536Z,5.88
2022-12-31T00:44:54.107Z,5.88
2022-12-31T00:45:55.827Z,5.87
2022-12-31T00:46:57.395Z,5.89
2022-12-31T00:47:58.957Z,5.91
2022-12-31T00:49:00.514Z,5.93
2022-12-31T00:50:02.065Z,5.91
2022-12-31T00:51:05.810Z,5.88
2022-12-31T00:52:07.404Z,5.90
2022-12-31T00:53:08.921Z,5.95
2022-12-31T00:54:10.450Z,5.96
2022-12-31T00:55:12.005Z,5.97
2022-12-31T00:56:16.174Z,5.96
2022-12-31T00:57:17.684Z,5.96
2022-12-31T00:58:19.228Z,5.99
2022-12-31T00:59:20.735Z,6.02
2022-12-31T01:00:22.439Z,6.02
2022-12-31T01:01:26.715Z,6.04
2022-12-31T01:02:28.434Z,6.06
2022-12-31T01:03:30.117Z,6.09
2022-12-31T01:04:31.655Z,6.10
2022-12-31T01:05:34.549Z,6.10
2022-12-31T01:06:36.224Z,6.14
2022-12-31T01:07:38.114Z,6.13
2022-12-31T01:08:39.716Z,6.15
2022-12-31T01:09:41.259Z,6.16
2022-12-31T01:10:42.852Z,6.13
2022-12-31T01:11:44.840Z,6.16
2022-12-31T01:12:46.389Z,6.14
2022-12-31T01:13:52.146Z,6.17
2022-12-31T01:14:53.666Z,6.18
2022-12-31T01:15:55.228Z,6.18
2022-12-31T01:16:56.834Z,6.20
2022-12-31T01:17:58.392Z,6.17
2022-12-31T01:19:03.084Z,6.15
2022-12-31T01:20:04.948Z,6.13
2022-12-31T01:21:09.408Z,6.15
2022-12-31T01:22:10.918Z,6.13
2022-12-31T01:23:12.497Z,6.17
2022-12-31T01:24:14.490Z,6.16
2022-12-31T01:25:16.040Z,6.19
2022-12-31T01:26:19.094Z,6.22
2022-12-31T01:27:20.622Z,6.24
2022-12-31T01:28:22.150Z,6.21
2022-12-31T01:29:23.751Z,6.21
2022-12-31T01:30:25.278Z,6.17
2022-12-31T01:31:27.815Z,6.19
2022-12-31T01:32:29.448Z,6.19
2022-12-31T01:33:31.072Z,6.21
2022-12-31T01:34:32.615Z,6.22
2022-12-31T01:35:35.727Z,6.26
2022-12-31T01:36:37.840Z,6.25
2022-12-31T01:37:39.355Z,6.22
2022-12-31T01:38:41.581Z,6.21
2022-12-31T01:39:43.321Z,6.23
2022-12-31T01:40:44.851Z,6.27
2022-12-31T01:41:47.938Z,6.25
2022-12-31T01:42:57.169Z,6.21
2022-12-31T01:44:01.059Z,6.23
2022-12-31T01:45:02.684Z,6.27
2022-12-31T01:46:04.430Z,6.29
2022-12-31T01:47:13.827Z,6.28
2022-12-31T01:48:19.681Z,6.27
2022-12-31T01:49:44.190Z,6.27
2022-12-31T01:50:46.539Z,6.27
2022-12-31T01:51:57.745Z,6.28
2022-12-31T01:53:03.485Z,6.29
2022-12-31T01:54:08.608Z,6.32
2022-12-31T01:55:16.239Z,6.27
2022-12-31T01:56:20.753Z,6.25
2022-12-31T01:57:24.815Z,6.27
2022-12-31T01:58:34.823Z,6.29
2022-12-31T01:59:37.021Z,6.28
2022-12-31T02:00:38.787Z,6.25
2022-12-31T02:01:40.673Z,6.29
2022-12-31T02:02:42.321Z,6.29
2022-12-31T02:03:44.574Z,6.26
2022-12-31T02:04:47.035Z,6.24
2022-12-31T02:05:56.646Z,6.22
2022-12-31T02:07:04.766Z,6.23
2022-12-31T02:08:07.191Z,6.23
2022-12-31T02:09:09.385Z,6.26
2022-12-31T02:10:11.174Z,6.29
2022-12-31T02:11:27.944Z,6.26
2022-12-31T02:12:29.683Z,6.24
2022-12-31T02:13:31.320Z,6.22
2022-12-31T02:14:39.628Z,6.22
2022-12-31T02:16:09.165Z,6.20
2022-12-31T02:17:19.731Z,6.22
2022-12-31T02:18:49.322Z,6.26
2022-12-31T02:20:24.443Z,6.19
2022-12-31T02:21:41.512Z,6.22
2022-12-31T02:23:00.923Z,6.27
2022-12-31T02:24:16.297Z,6.25
2022-12-31T02:25:29.951Z,6.19
2022-12-31T02:26:49.588Z,6.23
2022-12-31T02:28:09.923Z,6.24
2022-12-31T02:29:47.861Z,6.25
2022-12-31T02:30:55.991Z,6.21
2022-12-31T02:32:12.651Z,6.26
2022-12-31T02:33:28.851Z,6.25
2022-12-31T02:34:56.484Z,6.24
2022-12-31T02:36:02.717Z,6.22
2022-12-31T02:37:08.121Z,6.25
2022-12-31T02:38:19.345Z,6.25
2022-12-31T02:39:21.643Z,6.27
2022-12-31T02:40:23.809Z,6.28
2022-12-31T02:41:25.320Z,6.25
2022-12-31T02:42:26.917Z,6.26
2022-12-31T02:43:28.638Z,6.24
2022-12-31T02:44:32.677Z,6.26
2022-12-31T02:45:40.963Z,6.24
2022-12-31T02:46:51.512Z,6.26
2022-12-31T02:48:15.305Z,6.27
2022-12-31T02:49:43.048Z,6.31
2022-12-31T02:50:52.886Z,6.35
2022-12-31T02:52:03.818Z,6.29
2022-12-31T02:53:26.580Z,6.29
2022-12-31T02:54:31.656Z,6.30
2022-12-31T02:56:05.466Z,6.27
2022-12-31T02:57:28.224Z,6.26
2022-12-31T02:58:47.216Z,6.25
2022-12-31T03:00:01.596Z,6.25
2022-12-31T03:01:03.385Z,6.27
2022-12-31T03:02:14.138Z,6.30
2022-12-31T03:03:15.983Z,6.29
2022-12-31T03:04:18.555Z,6.32
2022-12-31T03:05:24.255Z,6.36
2022-12-31T03:06:25.961Z,6.31
2022-12-31T03:07:30.002Z,6.28
2022-12-31T03:08:31.555Z,6.35
2022-12-31T03:09:34.034Z,6.31
2022-12-31T03:10:36.259Z,6.33
2022-12-31T03:11:37.812Z,6.37
2022-12-31T03:12:40.265Z,6.36
2022-12-31T03:13:41.770Z,6.33
2022-12-31T03:14:43.403Z,6.41
2022-12-31T03:15:44.992Z,6.37
2022-12-31T03:16:46.518Z,6.38
2022-12-31T03:18:15.838Z,6.32
2022-12-31T03:19:17.389Z,6.31
2022-12-31T03:20:19.382Z,6.36
2022-12-31T03:21:20.969Z,6.34
2022-12-31T03:22:22.593Z,6.29
2022-12-31T03:23:31.408Z,6.29
2022-12-31T03:24:32.949Z,6.27
2022-12-31T03:25:35.187Z,6.29
2022-12-31T03:26:36.699Z,6.29
2022-12-31T03:27:41.068Z,6.26
2022-12-31T03:28:43.871Z,6.27
2022-12-31T03:29:45.388Z,6.26
2022-12-31T03:30:50.420Z,6.27
2022-12-31T03:31:51.984Z,6.26
2022-12-31T03:32:54.071Z,6.27
2022-12-31T03:33:55.987Z,6.26
2022-12-31T03:34:57.604Z,6.29
2022-12-31T03:35:59.135Z,6.25
2022-12-31T03:37:01.552Z,6.22
2022-12-31T03:38:04.482Z,6.25
2022-12-31T03:39:06.007Z,6.24
2022-12-31T03:40:09.086Z,6.26
2022-12-31T03:41:11.276Z,6.27
2022-12-31T03:42:12.965Z,6.25
2022-12-31T03:43:14.589Z,6.23
2022-12-31T03:44:16.106Z,6.24
2022-12-31T03:45:17.783Z,6.24
2022-12-31T03:46:19.435Z,6.22
2022-12-31T03:47:21.053Z,6.23
2022-12-31T03:48:23.685Z,6.24
2022-12-31T03:49:25.249Z,6.26
2022-12-31T03:50:27.308Z,6.29
2022-12-31T03:51:28.838Z,6.30
2022-12-31T03:52:30.395Z,6.29
2022-12-31T03:53:31.933Z,6.27
2022-12-31T03:54:33.455Z,6.29
2022-12-31T03:55:35.028Z,6.29
2022-12-31T03:56:36.553Z,6.35
2022-12-31T03:57:38.576Z,6.32
2022-12-31T03:58:40.102Z,6.32
2022-12-31T03:59:41.630Z,6.31
2022-12-31T04:00:43.229Z,6.31
2022-12-31T04:01:44.874Z,6.32
2022-12-31T04:02:48.363Z,6.33
2022-12-31T04:03:50.131Z,6.35
2022-12-31T04:04:51.722Z,6.33
2022-12-31T04:05:56.881Z,6.33
2022-12-31T04:06:58.715Z,6.32
2022-12-31T04:08:00.390Z,6.35
2022-12-31T04:09:01.925Z,6.35
2022-12-31T04:10:05.874Z,6.34
2022-12-31T04:11:07.383Z,6.36
2022-12-31T04:12:09.070Z,6.33
2022-12-31T04:13:10.727Z,6.32
2022-12-31T04:14:12.325Z,6.33
2022-12-31T04:15:20.203Z,6.31
2022-12-31T04:16:21.820Z,6.36
2022-12-31T04:17:23.837Z,6.33
2022-12-31T04:18:25.360Z,6.35
2022-12-31T04:19:26.941Z,6.34
2022-12-31T04:20:28.605Z,6.33
2022-12-31T04:21:34.861Z,6.31
2022-12-31T04:22:36.856Z,6.32
2022-12-31T04:23:38.397Z,6.32
2022-12-31T04:24:39.969Z,6.34
2022-12-31T04:25:41.515Z,6.37
2022-12-31T04:26:45.868Z,6.36
2022-12-31T04:27:47.414Z,6.40
2022-12-31T04:28:48.960Z,6.41
2022-12-31T04:29:50.519Z,6.44
2022-12-31T04:30:52.074Z,6.47
2022-12-31T04:31:54.427Z,6.53
2022-12-31T04:32:56.026Z,6.56
2022-12-31T04:33:57.653Z,6.54
2022-12-31T04:34:59.178Z,6.56
2022-12-31T04:36:10.014Z,6.57
2022-12-31T04:37:11.568Z,6.59
2022-12-31T04:38:13.145Z,6.65
2022-12-31T04:39:14.705Z,6.66
2022-12-31T04:40:16.263Z,6.69
2022-12-31T04:41:17.862Z,6.72
2022-12-31T04:42:19.423Z,6.66
2022-12-31T04:43:20.984Z,6.64
2022-12-31T04:44:22.635Z,6.57
2022-12-31T04:45:24.207Z,6.58
2022-12-31T04:46:32.184Z,6.58
2022-12-31T04:47:33.751Z,6.60
2022-12-31T04:48:35.592Z,6.62
2022-12-31T04:49:37.109Z,6.65
2022-12-31T04:50:38.629Z,6.67
2022-12-31T04:51:40.359Z,6.62
2022-12-31T04:52:43.081Z,6.63
2022-12-31T04:53:45.139Z,6.59
2022-12-31T04:54:46.715Z,6.61
2022-12-31T04:55:48.335Z,6.63
2022-12-31T04:56:49.894Z,6.63
2022-12-31T04:57:51.450Z,6.56
2022-12-31T04:58:54.198Z,6.60
2022-12-31T04:59:55.710Z,6.55
2022-12-31T05:00:58.187Z,6.61
2022-12-31T05:01:59.946Z,6.67
2022-12-31T05:03:01.671Z,6.73
2022-12-31T05:04:03.285Z,6.79
2022-12-31T05:05:05.127Z,6.84
2022-12-31T05:06:13.544Z,6.86
2022-12-31T05:07:15.150Z,6.88
2022-12-31T05:08:18.156Z,6.87
2022-12-31T05:09:19.692Z,6.82
2022-12-31T05:10:21.248Z,6.77
2022-12-31T05:11:22.929Z,6.61
2022-12-31T05:12:24.440Z,6.58
2022-12-31T05:13:32.766Z,6.60
2022-12-31T05:14:34.774Z,6.60
2022-12-31T05:15:36.616Z,6.67
2022-12-31T05:16:38.133Z,6.66
2022-12-31T05:17:39.736Z,6.60
2022-12-31T05:18:41.245Z,6.60
2022-12-31T05:19:42.751Z,6.61
2022-12-31T05:20:44.426Z,6.66
2022-12-31T05:21:45.962Z,6.62
2022-12-31T05:22:47.462Z,6.60
2022-12-31T05:23:49.164Z,6.55
2022-12-31T05:24:50.669Z,6.53
2022-12-31T05:25:52.481Z,6.52
2022-12-31T05:26:54.033Z,6.54
2022-12-31T05:27:55.690Z,6.47
2022-12-31T05:28:57.280Z,6.41
2022-12-31T05:30:01.060Z,6.49
2022-12-31T05:31:02.676Z,6.48
2022-12-31T05:32:04.334Z,6.45
2022-12-31T05:33:06.202Z,6.41
2022-12-31T05:34:07.734Z,6.41
2022-12-31T05:35:09.402Z,6.45
2022-12-31T05:36:10.966Z,6.47
2022-12-31T05:37:12.531Z,6.38
2022-12-31T05:38:14.126Z,6.36
2022-12-31T05:39:15.757Z,6.28
2022-12-31T05:40:17.353Z,6.24
2022-12-31T05:41:18.905Z,6.16
2022-12-31T05:42:20.862Z,6.15
2022-12-31T05:43:22.389Z,6.13
2022-12-31T05:44:23.918Z,6.17
2022-12-31T05:45:30.725Z,6.19
2022-12-31T05:46:32.862Z,6.26
2022-12-31T05:47:34.506Z,6.31
2022-12-31T05:48:36.059Z,6.26
2022-12-31T05:49:37.589Z,6.26
2022-12-31T05:50:39.141Z,6.24
2022-12-31T05:51:43.175Z,6.24
2022-12-31T05:52:47.628Z,6.22
2022-12-31T05:53:49.411Z,6.17
2022-12-31T05:54:50.976Z,6.09
2022-12-31T05:55:52.483Z,6.03
2022-12-31T05:56:54.032Z,5.94
2022-12-31T05:57:55.563Z,5.96
2022-12-31T05:58:57.221Z,5.91
2022-12-31T05:59:58.765Z,5.93
2022-12-31T06:01:00.369Z,6.01
2022-12-31T06:02:01.978Z,5.99
2022-12-31T06:03:03.692Z,5.96
2022-12-31T06:04:05.387Z,5.93
2022-12-31T06:05:07.267Z,5.92
2022-12-31T06:06:08.884Z,5.96
2022-12-31T06:07:10.485Z,5.97
2022-12-31T06:08:12.386Z,5.93
2022-12-31T06:09:15.812Z,5.97
2022-12-31T06:10:17.441Z,5.99
2022-12-31T06:11:18.977Z,5.97
2022-12-31T06:12:20.498Z,5.95
2022-12-31T06:13:22.046Z,5.97
2022-12-31T06:14:23.649Z,5.97
2022-12-31T06:15:25.154Z,5.96
2022-12-31T06:16:26.750Z,5.95
2022-12-31T06:17:28.318Z,5.98
2022-12-31T06:18:29.956Z,5.99
2022-12-31T06:19:31.510Z,6.02
2022-12-31T06:20:33.219Z,6.06
2022-12-31T06:21:34.899Z,6.12
2022-12-31T06:22:36.444Z,6.13
2022-12-31T06:23:40.530Z,6.09
2022-12-31T06:24:42.216Z,6.08
2022-12-31T06:25:43.764Z,6.06
2022-12-31T06:26:45.336Z,6.07
2022-12-31T06:27:46.868Z,6.01
2022-12-31T06:28:48.430Z,6.08
2022-12-31T06:29:50.001Z,6.17
2022-12-31T06:30:51.584Z,6.23
2022-12-31T06:31:53.134Z,6.16
2022-12-31T06:32:55.351Z,6.11
2022-12-31T06:33:56.930Z,6.01
2022-12-31T06:34:58.508Z,5.98
2022-12-31T06:36:03.135Z,6.03
2022-12-31T06:37:04.682Z,6.03
2022-12-31T06:38:06.215Z,5.99
2022-12-31T06:39:07.875Z,5.95
2022-12-31T06:40:10.216Z,5.98
2022-12-31T06:41:13.828Z,5.99
2022-12-31T06:42:15.389Z,5.98
2022-12-31T06:43:17.011Z,5.99
2022-12-31T06:44:18.518Z,5.97
2022-12-31T06:45:20.573Z,5.97
2022-12-31T06:46:22.174Z,5.99
2022-12-31T06:47:24.087Z,5.93
2022-12-31T06:48:25.703Z,5.94
2022-12-31T06:49:27.245Z,5.94
2022-12-31T06:50:28.765Z,5.92
2022-12-31T06:51:30.330Z,5.94
2022-12-31T06:52:31.888Z,5.92
2022-12-31T06:53:34.235Z,5.91
2022-12-31T06:54:36.103Z,5.95
2022-12-31T06:55:38.073Z,5.98
2022-12-31T06:56:40.273Z,6.02
2022-12-31T06:57:42.064Z,6.05
2022-12-31T06:58:44.248Z,6.08
2022-12-31T06:59:46.196Z,6.13
2022-12-31T07:01:02.143Z,6.16
2022-12-31T07:02:15.933Z,6.18
2022-12-31T07:03:48.452Z,6.19
2022-12-31T07:05:12.885Z,6.19
2022-12-31T07:06:26.300Z,6.21
2022-12-31T07:07:36.912Z,6.19
2022-12-31T07:09:09.667Z,6.21
2022-12-31T07:10:29.043Z,6.23
2022-12-31T07:11:38.967Z,6.20
2022-12-31T07:12:53.631Z,6.23
2022-12-31T07:14:00.955Z,6.26
2022-12-31T07:15:11.004Z,6.32
2022-12-31T07:16:50.059Z,6.36
2022-12-31T07:17:51.550Z,6.39
2022-12-31T07:19:20.879Z,6.40
2022-12-31T07:20:22.896Z,6.50
2022-12-31T07:21:51.503Z,6.67
2022-12-31T07:22:53.337Z,6.75
2022-12-31T07:23:55.115Z,6.81
2022-12-31T07:24:56.955Z,6.89
2022-12-31T07:26:06.730Z,7.02
2022-12-31T07:27:17.215Z,7.20
2022-12-31T07:28:36.505Z,7.31
2022-12-31T07:29:58.794Z,7.45
2022-12-31T07:31:04.026Z,7.54
2022-12-31T07:32:29.563Z,7.48
2022-12-31T07:33:40.533Z,7.53
2022-12-31T07:34:47.483Z,7.50
2022-12-31T07:36:16.989Z,7.49
2022-12-31T07:37:37.242Z,7.32
2022-12-31T07:38:41.782Z,7.29
2022-12-31T07:40:14.831Z,7.25
2022-12-31T07:41:47.437Z,7.28
2022-12-31T07:42:58.602Z,7.23
2022-12-31T07:44:35.569Z,7.16
2022-12-31T07:46:12.031Z,7.08
2022-12-31T07:47:20.627Z,7.13
2022-12-31T07:48:27.324Z,7.13
2022-12-31T07:49:30.030Z,7.14
2022-12-31T07:50:31.948Z,7.12
2022-12-31T07:51:33.724Z,7.11
2022-12-31T07:52:35.536Z,7.10
2022-12-31T07:53:38.210Z,7.08
2022-12-31T07:54:39.793Z,7.11
2022-12-31T07:55:41.452Z,7.15
2022-12-31T07:56:43.865Z,7.19
2022-12-31T07:58:01.116Z,7.13
2022-12-31T07:59:09.906Z,7.16
2022-12-31T08:00:14.743Z,7.17
2022-12-31T08:01:28.971Z,7.19
2022-12-31T08:02:50.770Z,7.22
2022-12-31T08:04:18.156Z,7.27
2022-12-31T08:05:38.204Z,7.27
2022-12-31T08:06:45.629Z,7.25
2022-12-31T08:08:00.536Z,7.29
2022-12-31T08:09:42.719Z,7.32
2022-12-31T08:11:03.370Z,7.30
2022-12-31T08:12:05.218Z,7.34
2022-12-31T08:13:11.206Z,7.40
2022-12-31T08:14:14.683Z,7.41
2022-12-31T08:15:18.724Z,7.40
2022-12-31T08:16:20.644Z,7.44
2022-12-31T08:17:22.752Z,7.46
2022-12-31T08:18:24.438Z,7.50
2022-12-31T08:19:31.949Z,7.54
2022-12-31T08:20:39.425Z,7.58
2022-12-31T08:21:50.588Z,7.59
2022-12-31T08:23:24.433Z,7.63
2022-12-31T08:24:41.368Z,7.60
2022-12-31T08:25:52.453Z,7.61
2022-12-31T08:27:26.849Z,7.64
2022-12-31T08:28:43.464Z,7.64
2022-12-31T08:30:12.478Z,7.62
2022-12-31T08:31:21.604Z,7.64
2022-12-31T08:32:28.440Z,7.68
2022-12-31T08:33:42.542Z,7.67
2022-12-31T08:35:06.074Z,7.69
2022-12-31T08:36:16.509Z,7.68
2022-12-31T08:37:31.402Z,7.69
2022-12-31T08:38:46.444Z,7.71
2022-12-31T08:39:53.891Z,7.76
2022-12-31T08:40:58.269Z,7.77
2022-12-31T08:42:04.955Z,7.74
2022-12-31T08:43:25.682Z,7.78
2022-12-31T08:44:39.687Z,7.80
2022-12-31T08:45:47.286Z,7.80
2022-12-31T08:47:03.777Z,7.84
2022-12-31T08:48:08.016Z,7.88
2022-12-31T08:49:10.564Z,7.89
2022-12-31T08:50:17.161Z,7.94
2022-12-31T08:51:24.554Z,7.96
2022-12-31T08:52:26.802Z,8.01
2022-12-31T08:53:28.629Z,8.05
2022-12-31T08:54:30.506Z,8.10
2022-12-31T08:55:32.322Z,8.09
2022-12-31T08:56:39.769Z,8.14
2022-12-31T08:58:06.118Z,8.12
2022-12-31T08:59:25.228Z,8.20
2022-12-31T09:00:28.030Z,8.22
2022-12-31T09:01:40.754Z,8.21
2022-12-31T09:03:08.089Z,8.25
2022-12-31T09:04:21.694Z,8.28
2022-12-31T09:05:32.094Z,8.34
2022-12-31T09:06:48.694Z,8.39
2022-12-31T09:08:09.664Z,8.44
2022-12-31T09:09:29.619Z,8.47
2022-12-31T09:11:08.637Z,8.54
2022-12-31T09:12:15.904Z,8.57
2022-12-31T09:13:37.046Z,8.62
2022-12-31T09:14:48.084Z,8.61
2022-12-31T09:16:04.807Z,8.65
2022-12-31T09:17:41.991Z,8.69
2022-12-31T09:18:43.676Z,8.73
2022-12-31T09:19:45.341Z,8.73
2022-12-31T09:20:47.201Z,8.82
2022-12-31T09:21:49.012Z,8.97
2022-12-31T09:22:52.074Z,9.16
2022-12-31T09:23:54.113Z,9.27
2022-12-31T09:24:55.876Z,9.30
2022-12-31T09:26:24.911Z,9.24
2022-12-31T09:27:30.208Z,9.19
2022-12-31T09:29:07.156Z,9.11
2022-12-31T09:30:12.409Z,9.06
2022-12-31T09:31:39.007Z,9.08
2022-12-31T09:32:58.668Z,9.14
2022-12-31T09:34:05.408Z,9.21
2022-12-31T09:35:22.019Z,9.26
2022-12-31T09:36:40.987Z,9.42
2022-12-31T09:37:49.243Z,9.56
2022-12-31T09:39:16.329Z,9.74
2022-12-31T09:40:17.906Z,10.03
2022-12-31T09:42:12.299Z,10.44
2022-12-31T09:43:58.996Z,10.33
2022-12-31T09:45:16.042Z,10.12
2022-12-31T09:46:48.623Z,9.97
2022-12-31T09:48:11.750Z,9.96
2022-12-31T09:49:31.818Z,10.15
2022-12-31T09:51:06.311Z,10.10
2022-12-31T09:52:45.490Z,10.07
2022-12-31T09:54:03.401Z,9.93
2022-12-31T09:55:07.988Z,9.93
2022-12-31T09:56:15.327Z,10.06
2022-12-31T09:57:28.538Z,10.23
2022-12-31T09:58:50.969Z,10.44
2022-12-31T10:00:14.198Z,10.48
2022-12-31T10:01:39.497Z,10.48
2022-12-31T10:02:53.166Z,10.51
2022-12-31T10:04:16.148Z,10.62
2022-12-31T10:05:45.044Z,10.75
2022-12-31T10:06:49.313Z,10.84
2022-12-31T10:07:57.972Z,10.80
2022-12-31T10:09:24.253Z,10.81
2022-12-31T10:10:41.675Z,10.90
2022-12-31T10:11:58.063Z,11.01
2022-12-31T10:13:05.591Z,11.09
2022-12-31T10:14:51.546Z,11.09
2022-12-31T10:16:19.692Z,11.04
2022-12-31T10:17:48.911Z,11.19
2022-12-31T10:19:18.268Z,11.31
2022-12-31T10:20:45.240Z,11.29
2022-12-31T10:22:10.880Z,11.24
2022-12-31T10:23:21.373Z,11.20
2022-12-31T10:24:23.631Z,11.19
2022-12-31T10:25:38.294Z,11.21
2022-12-31T10:26:53.593Z,11.19
2022-12-31T10:28:05.823Z,11.17
2022-12-31T10:29:10.473Z,11.14
2022-12-31T10:30:19.405Z,11.18
2022-12-31T10:31:39.027Z,11.17
2022-12-31T10:32:43.619Z,11.10
2022-12-31T10:34:16.984Z,11.11
2022-12-31T10:35:37.040Z,11.05
2022-12-31T10:36:42.501Z,11.07
2022-12-31T10:38:05.279Z,11.11
2022-12-31T10:39:24.091Z,11.16
2022-12-31T10:40:28.967Z,11.20
2022-12-31T10:42:00.861Z,11.11
2022-12-31T10:43:20.513Z,11.15
2022-12-31T10:44:27.718Z,11.09
2022-12-31T10:46:08.008Z,11.10
2022-12-31T10:47:40.224Z,11.05
2022-12-31T10:49:12.302Z,11.10
2022-12-31T10:50:51.270Z,11.12
2022-12-31T10:52:01.820Z,11.08
2022-12-31T10:53:45.255Z,11.07
2022-12-31T10:55:22.411Z,11.07
2022-12-31T10:56:26.814Z,11.13
2022-12-31T10:57:39.173Z,11.14
2022-12-31T10:58:46.590Z,11.14
2022-12-31T11:00:00.189Z,11.13
2022-12-31T11:01:19.454Z,11.10
2022-12-31T11:02:58.382Z,11.13
2022-12-31T11:04:30.129Z,11.11
2022-12-31T11:05:56.154Z,11.09
2022-12-31T11:07:25.543Z,11.13
2022-12-31T11:08:54.982Z,11.08
2022-12-31T11:10:30.089Z,11.07
2022-12-31T11:11:44.257Z,11.13
2022-12-31T11:13:11.776Z,11.14
2022-12-31T11:14:43.238Z,11.10
2022-12-31T11:16:08.343Z,11.06
2022-12-31T11:17:33.016Z,11.02
2022-12-31T11:18:43.640Z,11.01
2022-12-31T11:20:08.013Z,10.89
2022-12-31T11:21:28.557Z,10.86
2022-12-31T11:23:01.727Z,10.78
2022-12-31T11:24:25.190Z,10.74
2022-12-31T11:25:33.154Z,10.76
2022-12-31T11:26:57.526Z,10.75
2022-12-31T11:28:15.694Z,10.72
2022-12-31T11:29:38.635Z,10.64
2022-12-31T11:31:04.345Z,10.66
2022-12-31T11:32:33.228Z,10.58
2022-12-31T11:33:45.357Z,10.54
2022-12-31T11:35:08.060Z,10.56
2022-12-31T11:36:24.675Z,10.56
2022-12-31T11:37:46.782Z,10.57
2022-12-31T11:39:06.969Z,10.60
2022-12-31T11:40:19.673Z,10.56
2022-12-31T11:41:46.299Z,10.52
2022-12-31T11:43:16.516Z,10.48
2022-12-31T11:44:20.991Z,10.47
2022-12-31T11:45:57.859Z,10.48
2022-12-31T11:47:16.861Z,10.44
2022-12-31T11:48:57.409Z,10.42
2022-12-31T11:50:01.892Z,10.46
2022-12-31T11:51:37.616Z,10.41
2022-12-31T11:52:41.750Z,10.40
2022-12-31T11:54:06.560Z,10.43
2022-12-31T11:55:30.707Z,10.47
2022-12-31T11:56:38.566Z,10.48
2022-12-31T11:57:46.518Z,10.45
2022-12-31T11:58:56.057Z,10.45
2022-12-31T12:00:01.485Z,10.46
2022-12-31T12:01:13.751Z,10.47
2022-12-31T12:02:24.391Z,10.49
2022-12-31T12:03:27.339Z,10.50
2022-12-31T12:04:30.079Z,10.50
2022-12-31T12:05:32.483Z,10.45
2022-12-31T12:06:34.023Z,10.46
2022-12-31T12:07:35.590Z,10.49
2022-12-31T12:08:38.091Z,10.47
2022-12-31T12:09:41.112Z,10.49
2022-12-31T12:10:49.723Z,10.50
2022-12-31T12:11:59.970Z,10.49
2022-12-31T12:13:27.247Z,10.49
2022-12-31T12:14:41.348Z,10.42
2022-12-31T12:15:47.955Z,10.45
2022-12-31T12:16:59.154Z,10.43
2022-12-31T12:18:13.722Z,10.41
2022-12-31T12:19:18.396Z,10.43
2022-12-31T12:20:30.510Z,10.44
2022-12-31T12:21:32.455Z,10.45
2022-12-31T12:22:35.322Z,10.47
2022-12-31T12:23:37.691Z,10.51
2022-12-31T12:24:39.547Z,10.56
2022-12-31T12:25:43.456Z,10.59
2022-12-31T12:26:45.284Z,10.59
2022-12-31T12:27:47.032Z,10.59
2022-12-31T12:28:48.580Z,10.59
2022-12-31T12:29:50.176Z,10.62
2022-12-31T12:31:18.634Z,10.57
2022-12-31T12:32:23.144Z,10.54
2022-12-31T12:33:25.585Z,10.51
2022-12-31T12:34:34.594Z,10.45
2022-12-31T12:35:36.162Z,10.42
2022-12-31T12:36:46.175Z,10.42
2022-12-31T12:37:58.918Z,10.39
2022-12-31T12:39:03.023Z,10.36
2022-12-31T12:40:20.845Z,10.36
2022-12-31T12:41:24.818Z,10.39
2022-12-31T12:42:26.741Z,10.40
2022-12-31T12:43:36.573Z,10.45
2022-12-31T12:44:39.063Z,10.46
2022-12-31T12:45:52.217Z,10.48
2022-12-31T12:46:55.606Z,10.48
2022-12-31T12:48:02.263Z,10.51
2022-12-31T12:49:03.916Z,10.47
2022-12-31T12:50:15.687Z,10.45
2022-12-31T12:51:19.985Z,10.46
2022-12-31T12:52:32.796Z,10.51
2022-12-31T12:53:59.819Z,10.44
2022-12-31T12:55:24.677Z,10.42
2022-12-31T12:56:51.235Z,10.38
2022-12-31T12:57:55.745Z,10.44
2022-12-31T12:59:14.622Z,10.43
2022-12-31T13:00:18.930Z,10.42
2022-12-31T13:01:35.081Z,10.38
2022-12-31T13:03:07.322Z,10.39
2022-12-31T13:04:34.448Z,10.37
2022-12-31T13:05:58.278Z,10.39
2022-12-31T13:07:31.975Z,10.43
2022-12-31T13:08:49.730Z,10.43
2022-12-31T13:10:08.750Z,10.43
2022-12-31T13:11:37.720Z,10.44
2022-12-31T13:13:25.901Z,10.40
2022-12-31T13:15:09.820Z,10.35
2022-12-31T13:16:22.762Z,10.35
2022-12-31T13:17:54.098Z,10.33
2022-12-31T13:19:34.944Z,10.38
2022-12-31T13:20:39.318Z,10.37
2022-12-31T13:21:49.760Z,10.38
2022-12-31T13:23:33.671Z,10.39
2022-12-31T13:24:56.031Z,10.36
2022-12-31T13:26:05.848Z,10.39
2022-12-31T13:27:35.382Z,10.39
2022-12-31T13:28:39.898Z,10.39
2022-12-31T13:29:44.891Z,10.41
2022-12-31T13:30:50.667Z,10.42
2022-12-31T13:31:55.286Z,10.43
2022-12-31T13:33:21.516Z,10.43
2022-12-31T13:34:31.831Z,10.45
2022-12-31T13:35:43.501Z,10.48
2022-12-31T13:36:47.493Z,10.48
2022-12-31T13:37:53.529Z,10.46
2022-12-31T13:38:58.840Z,10.42
2022-12-31T13:40:16.769Z,10.45
2022-12-31T13:41:30.737Z,10.47
2022-12-31T13:42:41.262Z,10.48
2022-12-31T13:44:09.717Z,10.48
2022-12-31T13:45:20.335Z,10.47
2022-12-31T13:46:33.610Z,10.54
2022-12-31T13:47:49.050Z,10.58
2022-12-31T13:48:55.735Z,10.62
2022-12-31T13:50:19.057Z,10.70
2022-12-31T13:51:56.101Z,10.73
2022-12-31T13:53:20.619Z,10.72
2022-12-31T13:54:28.546Z,10.73
2022-12-31T13:55:35.724Z,10.74
2022-12-31T13:56:38.685Z,10.75
2022-12-31T13:57:47.082Z,10.74
2022-12-31T13:59:00.818Z,10.71
2022-12-31T14:00:19.971Z,10.70
2022-12-31T14:01:39.667Z,10.75
2022-12-31T14:02:59.461Z,10.81
2022-12-31T14:04:14.039Z,10.78
2022-12-31T14:05:37.709Z,10.80
2022-12-31T14:06:51.476Z,10.83
2022-12-31T14:07:59.163Z,10.86
2022-12-31T14:09:00.990Z,10.86
2022-12-31T14:10:03.228Z,10.84
2022-12-31T14:11:13.799Z,10.83
2022-12-31T14:12:27.885Z,10.86
2022-12-31T14:14:04.619Z,10.85
2022-12-31T14:15:31.474Z,10.77
2022-12-31T14:16:47.697Z,10.76
2022-12-31T14:18:11.019Z,10.76
2022-12-31T14:19:12.527Z,10.77
2022-12-31T14:20:43.106Z,10.74
2022-12-31T14:22:03.123Z,10.76
2022-12-31T14:23:24.325Z,10.84
2022-12-31T14:24:51.393Z,10.85
2022-12-31T14:26:00.963Z,10.79
2022-12-31T14:27:08.885Z,10.82
2022-12-31T14:28:19.494Z,10.81
2022-12-31T14:29:53.125Z,10.84
2022-12-31T14:31:18.476Z,10.90
2022-12-31T14:33:01.388Z,10.94
2022-12-31T14:34:30.478Z,10.99
2022-12-31T14:35:35.168Z,11.00
2022-12-31T14:36:58.420Z,11.05
2022-12-31T14:38:18.211Z,11.09
2022-12-31T14:39:29.070Z,11.09
2022-12-31T14:40:45.310Z,11.09
2022-12-31T14:42:12.301Z,11.09
2022-12-31T14:43:35.184Z,11.10
2022-12-31T14:44:39.513Z,11.09
2022-12-31T14:46:00.518Z,11.10
2022-12-31T14:47:21.271Z,11.09
2022-12-31T14:49:12.795Z,11.06
2022-12-31T14:50:22.800Z,11.02
2022-12-31T14:51:29.785Z,10.95
2022-12-31T14:52:49.705Z,10.87
2022-12-31T14:53:56.561Z,10.88
2022-12-31T14:55:10.603Z,10.93
2022-12-31T14:56:32.220Z,10.91
2022-12-31T14:58:16.747Z,10.88
2022-12-31T14:59:02.535Z,10.84
2022-12-31T15:00:25.450Z,10.79
2022-12-31T15:01:30.607Z,10.75
2022-12-31T15:02:34.940Z,10.75
2022-12-31T15:03:45.718Z,10.74
2022-12-31T15:04:47.713Z,10.79
2022-12-31T15:05:59.007Z,10.83
2022-12-31T15:07:26.470Z,10.91
2022-12-31T15:08:46.802Z,10.94
2022-12-31T15:09:51.529Z,10.99
2022-12-31T15:11:05.526Z,11.04
2022-12-31T15:12:19.193Z,11.09
2022-12-31T15:13:44.667Z,11.13
2022-12-31T15:14:48.820Z,11.13
2022-12-31T15:16:02.838Z,11.15
2022-12-31T15:17:20.706Z,11.16
2022-12-31T15:18:37.081Z,11.13
2022-12-31T15:20:19.355Z,11.11
2022-12-31T15:21:28.105Z,11.10
2022-12-31T15:22:35.031Z,11.10
2022-12-31T15:23:39.409Z,11.07
2022-12-31T15:24:46.616Z,11.10
2022-12-31T15:25:58.193Z,11.14
2022-12-31T15:27:03.763Z,11.16